Time;durP1;ratioP1;P1;durP2;ratioP2;P2;SDS_P1;SDS_P2;PMS_P1;PMS_P2;Temp;Humidity;BMP_temperature;BMP_pressure;BME280_temperature;BME280_humidity;BME280_pressure;Samples;Min_cycle;Max_cycle;Signal;HPM_P1;HPM_P2
2024/01/31 00:02:24;;;;;;;;;;;;;;;;;;5097934;28;20044;-71
2024/01/31 00:04:50;;;;;;;;;;;;;;;;;;5097172;28;19935;-71
2024/01/31 00:07:16;;;;;;;;;;;;;;;;;;5097780;28;20332;-70
2024/01/31 00:09:42;;;;;;;;;;;;;;;;;;5097406;28;20017;-70
2024/01/31 00:12:08;;;;;;;;;;;;;;;;;;5096922;28;20361;-71
2024/01/31 00:14:34;;;;;;;;;;;;;;;;;;5097407;28;19908;-70
2024/01/31 00:17:00;;;;;;;;;;;;;;;;;;5097276;28;20002;-70
2024/01/31 00:19:26;;;;;;;;;;;;;;;;;;5096868;28;19934;-70
2024/01/31 00:21:52;;;;;;;;;;;;;;;;;;5097204;28;19919;-70
2024/01/31 00:24:18;;;;;;;;;;;;;;;;;;5097214;28;19908;-71
2024/01/31 00:26:45;;;;;;;;;;;;;;;;;;5096498;28;19965;-71
2024/01/31 00:29:11;;;;;;;;;;;;;;;;;;5097515;28;19908;-71
2024/01/31 00:31:37;;;;;;;;;;;;;;;;;;5097160;28;19908;-71
2024/01/31 00:34:02;;;;;;;;;;;;;;;;;;5096897;28;19965;-71
2024/01/31 00:36:28;;;;;;;;;;;;;;;;;;5096845;28;19915;-71
2024/01/31 00:38:55;;;;;;;;;;;;;;;;;;5096759;28;20380;-71
2024/01/31 00:41:21;;;;;;;;;;;;;;;;;;5078620;28;19915;-71
2024/01/31 00:43:47;;;;;;;;;;;;;;;;;;5096765;28;19908;-71
2024/01/31 00:46:13;;;;;;;;;;;;;;;;;;5096341;28;19953;-71
2024/01/31 00:48:39;;;;;;;;;;;;;;;;;;5096617;28;20344;-71
2024/01/31 00:51:05;;;;;;;;;;;;;;;;;;5096640;28;19908;-71
2024/01/31 00:53:31;;;;;;;;;;;;;;;;;;5096565;28;19969;-71
2024/01/31 00:55:57;;;;;;;;;;;;;;;;;;5096803;28;19914;-71
2024/01/31 00:58:22;;;;;;;;;;;;;;;;;;5096525;28;19951;-71
2024/01/31 01:00:48;;;;;;;;;;;;;;;;;;5095622;28;20386;-72
2024/01/31 01:03:14;;;;;;;;;;;;;;;;;;5096407;28;20384;-71
2024/01/31 01:05:40;;;;;;;;;;;;;;;;;;5096371;28;20327;-71
2024/01/31 01:08:06;;;;;;;;;;;;;;;;;;5095731;28;19962;-71
2024/01/31 01:10:32;;;;;;;;;;;;;;;;;;5096193;28;19918;-71
2024/01/31 01:12:59;;;;;;;;;;;;;;;;;;5096200;28;19908;-71
2024/01/31 01:15:25;;;;;;;;;;;;;;;;;;5095874;28;19953;-71
2024/01/31 01:17:51;;;;;;;;;;;;;;;;;;5096049;28;20284;-71
2024/01/31 01:20:17;;;;;;;;;;;;;;;;;;5096025;28;19908;-71
2024/01/31 01:22:43;;;;;;;;;;;;;;;;;;5095624;28;19919;-71
2024/01/31 01:25:09;;;;;;;;;;;;;;;;;;5096013;28;19981;-70
2024/01/31 01:27:35;;;;;;;;;;;;;;;;;;5095651;28;20418;-71
2024/01/31 01:30:01;;;;;;;;;;;;;;;;;;5095452;28;19969;-71
2024/01/31 01:32:27;;;;;;;;;;;;;;;;;;5095954;28;19998;-71
2024/01/31 01:34:53;;;;;;;;;;;;;;;;;;5095793;28;19912;-71
2024/01/31 01:37:19;;;;;;;;;;;;;;;;;;5095319;28;19918;-71
2024/01/31 01:39:45;;;;;;;;;;;;;;;;;;5095774;28;19908;-71
2024/01/31 01:42:11;;;;;;;;;;;;;;;;;;5095468;28;19915;-71
2024/01/31 01:44:37;;;;;;;;;;;;;;;;;;5095618;28;19908;-71
2024/01/31 01:47:03;;;;;;;;;;;;;;;;;;5096009;28;19916;-71
2024/01/31 01:49:32;;;;;;;;;;;;;;;;;;5095102;28;19908;-71
2024/01/31 01:51:58;;;;;;;;;;;;;;;;;;5095382;28;20363;-70
2024/01/31 01:54:24;;;;;;;;;;;;;;;;;;5095556;28;19961;-71
2024/01/31 01:56:50;;;;;;;;;;;;;;;;;;5094885;28;19908;-71
2024/01/31 01:59:16;;;;;;;;;;;;;;;;;;5095520;28;19915;-71
2024/01/31 02:01:42;;;;;;;;;;;;;;;;;;5095089;28;19998;-71
2024/01/31 02:04:08;;;;;;;;;;;;;;;;;;5095010;28;19908;-71
2024/01/31 02:06:34;;;;;;;;;;;;;;;;;;5095270;28;20368;-71
2024/01/31 02:09:00;;;;;;;;;;;;;;;;;;5095091;28;20324;-71
2024/01/31 02:11:26;;;;;;;;;;;;;;;;;;5093857;28;20245;-71
2024/01/31 02:13:52;;;;;;;;;;;;;;;;;;5095079;28;19912;-70
2024/01/31 02:16:18;;;;;;;;;;;;;;;;;;5094983;28;19915;-71
2024/01/31 02:18:44;;;;;;;;;;;;;;;;;;5094541;28;19908;-71
2024/01/31 02:21:09;;;;;;;;;;;;;;;;;;5095040;28;19991;-70
2024/01/31 02:23:35;;;;;;;;;;;;;;;;;;5094774;28;19908;-71
2024/01/31 02:26:01;;;;;;;;;;;;;;;;;;5076320;28;19908;-71
2024/01/31 02:28:27;;;;;;;;;;;;;;;;;;5094512;28;19920;-71
2024/01/31 02:30:53;;;;;;;;;;;;;;;;;;5094655;28;20473;-71
2024/01/31 02:33:19;;;;;;;;;;;;;;;;;;5094305;28;19919;-71
2024/01/31 02:35:45;;;;;;;;;;;;;;;;;;5094982;28;19915;-71
2024/01/31 02:38:11;;;;;;;;;;;;;;;;;;5094552;28;19908;-71
2024/01/31 02:40:37;;;;;;;;;;;;;;;;;;5094219;28;19908;-71
2024/01/31 02:43:03;;;;;;;;;;;;;;;;;;5094589;28;20368;-71
2024/01/31 02:45:29;;;;;;;;;;;;;;;;;;5094042;28;20280;-71
2024/01/31 02:47:55;;;;;;;;;;;;;;;;;;5094491;28;19923;-71
2024/01/31 02:50:21;;;;;;;;;;;;;;;;;;5094409;28;19908;-71
2024/01/31 02:52:47;;;;;;;;;;;;;;;;;;5094027;28;20372;-71
2024/01/31 02:55:13;;;;;;;;;;;;;;;;;;5094210;28;19908;-71
2024/01/31 02:57:39;;;;;;;;;;;;;;;;;;5094199;28;19908;-71
2024/01/31 03:00:06;;;;;;;;;;;;;;;;;;5093863;28;19951;-72
2024/01/31 03:02:32;;;;;;;;;;;;;;;;;;5094153;28;19923;-71
2024/01/31 03:04:58;;;;;;;;;;;;;;;;;;5094187;28;19995;-71
2024/01/31 03:07:24;;;;;;;;;;;;;;;;;;5075416;28;19919;-70
2024/01/31 03:09:50;;;;;;;;;;;;;;;;;;5094146;28;19908;-70
2024/01/31 03:12:16;;;;;;;;;;;;;;;;;;5094071;28;20057;-70
2024/01/31 03:14:42;;;;;;;;;;;;;;;;;;5093800;28;19912;-70
2024/01/31 03:17:08;;;;;;;;;;;;;;;;;;5094431;28;19916;-70
2024/01/31 03:19:35;;;;;;;;;;;;;;;;;;5094044;28;19908;-70
2024/01/31 03:22:01;;;;;;;;;;;;;;;;;;5093371;28;20354;-71
2024/01/31 03:24:28;;;;;;;;;;;;;;;;;;5093935;28;20265;-70
2024/01/31 03:26:54;;;;;;;;;;;;;;;;;;5075277;28;19928;-71
2024/01/31 03:29:20;;;;;;;;;;;;;;;;;;5093395;28;19908;-70
2024/01/31 03:31:46;;;;;;;;;;;;;;;;;;5094148;28;20352;-71
2024/01/31 03:34:12;;;;;;;;;;;;;;;;;;5093835;28;19919;-70
2024/01/31 03:36:38;;;;;;;;;;;;;;;;;;5093390;28;19915;-71
2024/01/31 03:39:04;;;;;;;;;;;;;;;;;;5093806;28;19990;-71
2024/01/31 03:41:30;;;;;;;;;;;;;;;;;;5093761;28;19958;-71
2024/01/31 03:43:56;;;;;;;;;;;;;;;;;;5093773;28;19908;-71
2024/01/31 03:46:22;;;;;;;;;;;;;;;;;;5093699;28;19911;-70
2024/01/31 03:48:48;;;;;;;;;;;;;;;;;;5093255;28;19916;-71
2024/01/31 03:51:14;;;;;;;;;;;;;;;;;;5093580;28;19915;-71
2024/01/31 03:53:40;;;;;;;;;;;;;;;;;;5093887;28;19912;-71
2024/01/31 03:56:06;;;;;;;;;;;;;;;;;;5075171;28;19957;-71
2024/01/31 03:58:31;;;;;;;;;;;;;;;;;;5093573;28;20084;-71
2024/01/31 04:00:57;;;;;;;;;;;;;;;;;;5093786;28;19999;-71
2024/01/31 04:03:24;;;;;;;;;;;;;;;;;;5074982;28;20352;-71
2024/01/31 04:05:50;;;;;;;;;;;;;;;;;;5093912;28;19908;-71
2024/01/31 04:08:16;;;;;;;;;;;;;;;;;;5093415;28;19970;-71
2024/01/31 04:10:42;;;;;;;;;;;;;;;;;;5093273;28;19923;-71
2024/01/31 04:13:07;;;;;;;;;;;;;;;;;;5093590;28;19908;-70
2024/01/31 04:15:33;;;;;;;;;;;;;;;;;;5093423;28;19908;-71
2024/01/31 04:18:00;;;;;;;;;;;;;;;;;;5092890;28;19915;-71
2024/01/31 04:20:26;;;;;;;;;;;;;;;;;;5093320;28;19915;-70
2024/01/31 04:22:52;;;;;;;;;;;;;;;;;;5093385;28;20364;-70
2024/01/31 04:25:18;;;;;;;;;;;;;;;;;;5092911;28;20284;-71
2024/01/31 04:27:44;;;;;;;;;;;;;;;;;;5093031;28;19968;-71
2024/01/31 04:30:10;;;;;;;;;;;;;;;;;;5093240;28;19908;-71
2024/01/31 04:32:36;;;;;;;;;;;;;;;;;;5092869;28;19915;-70
2024/01/31 04:35:02;;;;;;;;;;;;;;;;;;5094967;28;19921;-70
2024/01/31 04:37:28;;;;;;;;;;;;;;;;;;5096861;28;19908;-71
2024/01/31 04:39:54;;;;;;;;;;;;;;;;;;5096482;28;19923;-72
2024/01/31 04:42:20;;;;;;;;;;;;;;;;;;5097381;28;20272;-71
2024/01/31 04:44:46;;;;;;;;;;;;;;;;;;5097260;28;19908;-71
2024/01/31 04:47:12;;;;;;;;;;;;;;;;;;5096263;28;19916;-72
2024/01/31 04:49:39;;;;;;;;;;;;;;;;;;5096612;28;19934;-71
2024/01/31 04:52:05;;;;;;;;;;;;;;;;;;5096352;28;19908;-71
2024/01/31 04:54:30;;;;;;;;;;;;;;;;;;5096865;28;19915;-71
2024/01/31 04:56:56;;;;;;;;;;;;;;;;;;5096993;28;20356;-71
2024/01/31 04:59:22;;;;;;;;;;;;;;;;;;5096378;28;20314;-71
2024/01/31 05:01:48;;;;;;;;;;;;;;;;;;5096364;28;19935;-71
2024/01/31 05:04:14;;;;;;;;;;;;;;;;;;5096437;28;19910;-71
2024/01/31 05:06:40;;;;;;;;;;;;;;;;;;5095914;28;19915;-71
2024/01/31 05:09:08;;;;;;;;;;;;;;;;;;5096239;28;19912;-71
2024/01/31 05:11:34;;;;;;;;;;;;;;;;;;5096225;28;20376;-71
2024/01/31 05:14:00;;;;;;;;;;;;;;;;;;5095966;28;19915;-72
2024/01/31 05:16:26;;;;;;;;;;;;;;;;;;5096242;28;19908;-72
2024/01/31 05:18:52;;;;;;;;;;;;;;;;;;5096070;28;19958;-71
2024/01/31 05:21:18;;;;;;;;;;;;;;;;;;5095608;28;19970;-72
2024/01/31 05:23:44;;;;;;;;;;;;;;;;;;5095946;28;19962;-70
2024/01/31 05:26:10;;;;;;;;;;;;;;;;;;5095741;28;19908;-69
2024/01/31 05:28:36;;;;;;;;;;;;;;;;;;5095430;28;19916;-72
2024/01/31 05:31:02;;;;;;;;;;;;;;;;;;5095846;28;19965;-71
2024/01/31 05:33:28;;;;;;;;;;;;;;;;;;5077655;28;19908;-71
2024/01/31 05:35:54;;;;;;;;;;;;;;;;;;5095426;28;19908;-70
2024/01/31 05:38:19;;;;;;;;;;;;;;;;;;5095766;28;19915;-71
2024/01/31 05:40:45;;;;;;;;;;;;;;;;;;5096031;28;19995;-70
2024/01/31 05:43:11;;;;;;;;;;;;;;;;;;5095227;28;19908;-70
2024/01/31 05:45:37;;;;;;;;;;;;;;;;;;5095619;28;19908;-70
2024/01/31 05:48:03;;;;;;;;;;;;;;;;;;5095771;28;19969;-70
2024/01/31 05:50:29;;;;;;;;;;;;;;;;;;5095090;28;19987;-69
2024/01/31 05:52:55;;;;;;;;;;;;;;;;;;5095313;28;20006;-70
2024/01/31 05:55:21;;;;;;;;;;;;;;;;;;5095093;28;19909;-70
2024/01/31 05:57:47;;;;;;;;;;;;;;;;;;5095388;28;19908;-70
2024/01/31 06:00:13;;;;;;;;;;;;;;;;;;5095257;28;20352;-70
2024/01/31 06:02:39;;;;;;;;;;;;;;;;;;5095188;28;19916;-70
2024/01/31 06:05:05;;;;;;;;;;;;;;;;;;5095067;28;20022;-70
2024/01/31 06:07:31;;;;;;;;;;;;;;;;;;5095170;28;20364;-70
2024/01/31 06:09:57;;;;;;;;;;;;;;;;;;5076577;28;20276;-71
2024/01/31 06:12:23;;;;;;;;;;;;;;;;;;5095342;28;20371;-71
2024/01/31 06:14:49;;;;;;;;;;;;;;;;;;5091183;28;19969;-70
2024/01/31 06:17:16;;;;;;;;;;;;;;;;;;5093941;28;19915;-70
2024/01/31 06:19:42;;;;;;;;;;;;;;;;;;5094562;28;19912;-71
2024/01/31 06:22:08;;;;;;;;;;;;;;;;;;5094444;28;19908;-70
2024/01/31 06:24:36;;;;;;;;;;;;;;;;;;5093218;28;19915;-70
2024/01/31 06:27:01;;;;;;;;;;;;;;;;;;5093586;28;19927;-72
2024/01/31 06:29:27;;;;;;;;;;;;;;;;;;5091811;28;19912;-68
2024/01/31 06:31:59;;;;;;;;;;;;;;;;;;5090631;28;20368;-68
2024/01/31 06:34:25;;;;;;;;;;;;;;;;;;5093496;28;19912;-68
2024/01/31 06:36:52;;;;;;;;;;;;;;;;;;5083406;28;19923;-69
2024/01/31 06:39:18;;;;;;;;;;;;;;;;;;5091124;28;19913;-68
2024/01/31 06:41:44;;;;;;;;;;;;;;;;;;5089553;28;19912;-68
2024/01/31 06:44:10;;;;;;;;;;;;;;;;;;5092173;28;20292;-69
2024/01/31 06:46:36;;;;;;;;;;;;;;;;;;5092666;28;20000;-68
2024/01/31 06:49:02;;;;;;;;;;;;;;;;;;5090764;28;19956;-68
2024/01/31 06:51:29;;;;;;;;;;;;;;;;;;5088232;28;19919;-68
2024/01/31 06:53:55;;;;;;;;;;;;;;;;;;5088558;28;20288;-68
2024/01/31 06:56:21;;;;;;;;;;;;;;;;;;5086564;28;20003;-67
2024/01/31 06:58:47;;;;;;;;;;;;;;;;;;5089175;28;20709;-69
2024/01/31 07:01:12;;;;;;;;;;;;;;;;;;5089577;28;19916;-67
2024/01/31 07:03:38;;;;;;;;;;;;;;;;;;5088143;28;19919;-68
2024/01/31 07:06:05;;;;;;;;;;;;;;;;;;5087342;28;20620;-66
2024/01/31 07:08:31;;;;;;;;;;;;;;;;;;5089857;28;20026;-67
2024/01/31 07:10:57;;;;;;;;;;;;;;;;;;5090635;28;20002;-67
2024/01/31 07:13:24;;;;;;;;;;;;;;;;;;5089647;28;19957;-67
2024/01/31 07:15:50;;;;;;;;;;;;;;;;;;5090954;28;19919;-67
2024/01/31 07:18:16;;;;;;;;;;;;;;;;;;5087843;28;19998;-67
2024/01/31 07:20:42;;;;;;;;;;;;;;;;;;5090897;28;20417;-67
2024/01/31 07:23:08;;;;;;;;;;;;;;;;;;5089558;28;20007;-66
2024/01/31 07:25:34;;;;;;;;;;;;;;;;;;5091093;28;19916;-69
2024/01/31 07:28:00;;;;;;;;;;;;;;;;;;5091184;28;20414;-69
2024/01/31 07:30:26;;;;;;;;;;;;;;;;;;5091321;28;19908;-69
2024/01/31 07:32:53;;;;;;;;;;;;;;;;;;5092248;28;19995;-68
2024/01/31 07:35:20;;;;;;;;;;;;;;;;;;5090967;28;20038;-70
2024/01/31 07:37:46;;;;;;;;;;;;;;;;;;5087905;28;19912;-68
2024/01/31 07:40:11;;;;;;;;;;;;;;;;;;5087340;28;20212;-68
2024/01/31 07:42:37;;;;;;;;;;;;;;;;;;5086808;28;19912;-69
2024/01/31 07:45:04;;;;;;;;;;;;;;;;;;5087297;28;19909;-69
2024/01/31 07:47:30;;;;;;;;;;;;;;;;;;5087627;28;19924;-69
2024/01/31 07:49:56;;;;;;;;;;;;;;;;;;5070836;28;19915;-71
2024/01/31 07:52:22;;;;;;;;;;;;;;;;;;5087383;28;19912;-70
2024/01/31 07:54:48;;;;;;;;;;;;;;;;;;5087525;28;19908;-71
2024/01/31 07:57:14;;;;;;;;;;;;;;;;;;5087187;28;19916;-71
2024/01/31 07:59:40;;;;;;;;;;;;;;;;;;5069554;28;20018;-72
2024/01/31 08:02:06;;;;;;;;;;;;;;;;;;5087246;28;19913;-70
2024/01/31 08:04:32;;;;;;;;;;;;;;;;;;5087254;28;20006;-70
2024/01/31 08:06:58;;;;;;;;;;;;;;;;;;5088602;28;20022;-71
2024/01/31 08:09:24;;;;;;;;;;;;;;;;;;5090837;28;19916;-69
2024/01/31 08:11:50;;;;;;;;;;;;;;;;;;5095355;28;19938;-71
2024/01/31 08:14:16;;;;;;;;;;;;;;;;;;5091709;28;19916;-69
2024/01/31 08:16:42;;;;;;;;;;;;;;;;;;5095511;28;20382;-70
2024/01/31 08:19:08;;;;;;;;;;;;;;;;;;5093724;28;20404;-68
2024/01/31 08:21:34;;;;;;;;;;;;;;;;;;5093176;28;20042;-70
2024/01/31 08:24:00;;;;;;;;;;;;;;;;;;5091860;28;19912;-70
2024/01/31 08:26:27;;;;;;;;;;;;;;;;;;5095518;28;19974;-72
2024/01/31 08:28:54;;;;;;;;;;;;;;;;;;5096901;28;20048;-70
2024/01/31 08:31:20;;;;;;;;;;;;;;;;;;5095603;28;19962;-69
2024/01/31 08:33:47;;;;;;;;;;;;;;;;;;5095180;28;19912;-70
2024/01/31 08:36:13;;;;;;;;;;;;;;;;;;5094867;28;19912;-73
2024/01/31 08:38:43;;;;;;;;;;;;;;;;;;5094905;28;20345;-73
2024/01/31 08:41:10;;;;;;;;;;;;;;;;;;5093658;28;20006;-69
2024/01/31 08:43:35;;;;;;;;;;;;;;;;;;5094409;28;19966;-70
2024/01/31 08:46:01;;;;;;;;;;;;;;;;;;5094825;28;19955;-71
2024/01/31 08:48:27;;;;;;;;;;;;;;;;;;5095088;28;19927;-70
2024/01/31 08:50:53;;;;;;;;;;;;;;;;;;5095169;28;20004;-71
2024/01/31 08:53:19;;;;;;;;;;;;;;;;;;5093091;28;20320;-72
2024/01/31 08:55:45;;;;;;;;;;;;;;;;;;5097559;28;19954;-72
2024/01/31 08:58:11;;;;;;;;;;;;;;;;;;5092586;28;19908;-70
2024/01/31 09:00:37;;;;;;;;;;;;;;;;;;5093065;28;19912;-69
2024/01/31 09:03:03;;;;;;;;;;;;;;;;;;5092571;28;19915;-65
2024/01/31 09:05:29;;;;;;;;;;;;;;;;;;5087471;28;19935;-66
2024/01/31 09:07:55;;;;;;;;;;;;;;;;;;5073312;28;20292;-70
2024/01/31 09:10:21;;;;;;;;;;;;;;;;;;5091731;28;19920;-69
2024/01/31 09:12:48;;;;;;;;;;;;;;;;;;5088985;28;19927;-70
2024/01/31 09:15:17;;;;;;;;;;;;;;;;;;5089097;28;20408;-71
2024/01/31 09:17:47;;;;;;;;;;;;;;;;;;5082293;28;20007;-73
2024/01/31 09:20:13;;;;;;;;;;;;;;;;;;5090404;28;19912;-70
2024/01/31 09:22:40;;;;;;;;;;;;;;;;;;5093519;28;19915;-70
2024/01/31 09:25:10;;;;;;;;;;;;;;;;;;5076595;28;19912;-70
2024/01/31 09:27:39;;;;;;;;;;;;;;;;;;5074623;28;19920;-72
2024/01/31 09:30:05;;;;;;;;;;;;;;;;;;5097563;28;19912;-70
2024/01/31 09:32:37;;;;;;;;;;;;;;;;;;5093606;28;19909;-71
2024/01/31 09:35:09;;;;;;;;;;;;;;;;;;5093854;28;19916;-70
2024/01/31 09:37:39;;;;;;;;;;;;;;;;;;5093586;28;20018;-69
2024/01/31 09:40:05;;;;;;;;;;;;;;;;;;5095052;28;19954;-69
2024/01/31 09:42:32;;;;;;;;;;;;;;;;;;5097858;28;19916;-71
2024/01/31 09:44:58;;;;;;;;;;;;;;;;;;5093400;28;19938;-71
2024/01/31 09:47:26;;;;;;;;;;;;;;;;;;5091176;28;20914;-71
2024/01/31 09:49:56;;;;;;;;;;;;;;;;;;5078766;28;20002;-71
2024/01/31 09:52:28;;;;;;;;;;;;;;;;;;5099960;28;19908;-70
2024/01/31 09:54:55;;;;;;;;;;;;;;;;;;5094470;28;19918;-72
2024/01/31 09:57:21;;;;;;;;;;;;;;;;;;5073462;28;20316;-69
2024/01/31 09:59:47;;;;;;;;;;;;;;;;;;5092030;28;19966;-70
2024/01/31 10:02:13;;;;;;;;;;;;;;;;;;5090618;28;20007;-70
2024/01/31 10:04:39;;;;;;;;;;;;;;;;;;5089815;28;20016;-69
2024/01/31 10:07:07;;;;;;;;;;;;;;;;;;5092904;28;20612;-71
2024/01/31 10:09:36;;;;;;;;;;;;;;;;;;5071808;28;20010;-71
2024/01/31 10:12:05;;;;;;;;;;;;;;;;;;5091307;28;19963;-70
2024/01/31 10:14:33;;;;;;;;;;;;;;;;;;5091805;28;19912;-69
2024/01/31 10:16:59;;;;;;;;;;;;;;;;;;5091421;28;19916;-70
2024/01/31 10:19:26;;;;;;;;;;;;;;;;;;5092272;28;20007;-70
2024/01/31 10:21:55;;;;;;;;;;;;;;;;;;5072375;28;19957;-70
2024/01/31 10:24:23;;;;;;;;;;;;;;;;;;5075097;28;19908;-71
2024/01/31 10:26:51;;;;;;;;;;;;;;;;;;5093125;28;19920;-71
2024/01/31 10:29:17;;;;;;;;;;;;;;;;;;5091689;28;19912;-70
2024/01/31 10:31:44;;;;;;;;;;;;;;;;;;5091697;28;19923;-70
2024/01/31 10:34:10;;;;;;;;;;;;;;;;;;5092676;28;19977;-74
2024/01/31 10:36:35;;;;;;;;;;;;;;;;;;5085987;28;19912;-73
2024/01/31 10:39:02;;;;;;;;;;;;;;;;;;5089398;28;19915;-74
2024/01/31 10:41:28;;;;;;;;;;;;;;;;;;5079612;28;19917;-74
2024/01/31 10:43:54;;;;;;;;;;;;;;;;;;5088083;28;19912;-73
2024/01/31 10:46:20;;;;;;;;;;;;;;;;;;5084196;28;20503;-73
2024/01/31 10:48:46;;;;;;;;;;;;;;;;;;5085853;28;20322;-74
2024/01/31 10:51:12;;;;;;;;;;;;;;;;;;5072338;28;19916;-74
2024/01/31 10:53:38;;;;;;;;;;;;;;;;;;5088676;28;19908;-75
2024/01/31 10:56:04;;;;;;;;;;;;;;;;;;5071022;28;19912;-74
2024/01/31 10:58:30;;;;;;;;;;;;;;;;;;5071207;28;19940;-73
2024/01/31 11:00:56;;;;;;;;;;;;;;;;;;5090083;28;20364;-74
2024/01/31 11:03:22;;;;;;;;;;;;;;;;;;5081313;28;19924;-73
2024/01/31 11:05:49;;;;;;;;;;;;;;;;;;5072606;28;19948;-73
2024/01/31 11:08:15;;;;;;;;;;;;;;;;;;5089822;28;19943;-73
2024/01/31 11:10:41;;;;;;;;;;;;;;;;;;5090635;28;19947;-73
2024/01/31 11:13:07;;;;;;;;;;;;;;;;;;5071709;28;19912;-73
2024/01/31 11:15:34;;;;;;;;;;;;;;;;;;5088456;28;20011;-73
2024/01/31 11:18:01;;;;;;;;;;;;;;;;;;5068320;28;19908;-75
2024/01/31 11:20:28;;;;;;;;;;;;;;;;;;5083518;28;19912;-71
2024/01/31 11:22:54;;;;;;;;;;;;;;;;;;5088564;28;19934;-73
2024/01/31 11:25:20;;;;;;;;;;;;;;;;;;5068855;28;20261;-70
2024/01/31 11:27:46;;;;;;;;;;;;;;;;;;5068953;28;20326;-72
2024/01/31 11:30:12;;;;;;;;;;;;;;;;;;5086278;28;19916;-72
2024/01/31 11:32:39;;;;;;;;;;;;;;;;;;5071641;28;20321;-72
2024/01/31 11:35:05;;;;;;;;;;;;;;;;;;5089442;28;20371;-71
2024/01/31 11:37:31;;;;;;;;;;;;;;;;;;5071489;28;19916;-71
2024/01/31 11:39:57;;;;;;;;;;;;;;;;;;5090415;28;19923;-72
2024/01/31 11:42:23;;;;;;;;;;;;;;;;;;5086646;28;19962;-69
2024/01/31 11:44:49;;;;;;;;;;;;;;;;;;5092013;28;19912;-70
2024/01/31 11:48:19;;;;;;;;;;;;;;;;;;5086197;27;20551;-69
2024/01/31 11:50:45;;;;;;;;;;;;;;;;;;5087630;28;20060;-69
2024/01/31 11:53:11;;;;;;;;;;;;;;;;;;5087687;28;20372;-69
2024/01/31 11:57:08;;;;;;;;;;;;;;;;;;4966724;28;20416;-70
2024/01/31 11:59:34;;;;;;;;;;;;;;;;;;4971701;28;19915;-69
2024/01/31 12:02:00;;;;;;;;;;;;;;;;;;4971755;28;19911;-68
2024/01/31 12:04:43;;;;;;;;;;;;;;;;;;5108151;27;19916;-70
2024/01/31 12:08:11;;;;;;;;;;;;;;;;;;5121915;27;19924;-69
2024/01/31 12:12:45;;;;;;;;;;;;;;;;;;5127529;27;19920;-70
2024/01/31 12:15:15;;;;;;;;;;;;;;;;;;5116424;27;19912;-69
2024/01/31 12:17:41;;;;;;;;;;;;;;;;;;5119499;28;20317;-68
2024/01/31 12:22:15;;;;;;;;;;;;;;;;;;5106096;27;19924;-69
2024/01/31 12:24:41;;;;;;;;;;;;;;;;;;5102979;28;19911;-68
2024/01/31 12:29:18;;;;;;;;;;;;;;;;;;5120017;27;19926;-67
2024/01/31 12:31:45;;;;;;;;;;;;;;;;;;5109705;28;20372;-69
2024/01/31 12:34:11;;;;;;;;;;;;;;;;;;5106078;28;19916;-68
2024/01/31 12:36:37;;;;;;;;;;;;;;;;;;5108367;28;19912;-68
2024/01/31 12:39:04;;;;;;;;;;;;;;;;;;5107523;28;19969;-68
2024/01/31 12:44:29;;;;;;;;;;;;;;;;;;5112903;27;19916;-69
2024/01/31 12:46:55;;;;;;;;;;;;;;;;;;5109845;28;19919;-69
2024/01/31 12:49:21;;;;;;;;;;;;;;;;;;5110595;28;19920;-68
2024/01/31 12:51:47;;;;;;;;;;;;;;;;;;5110532;28;20373;-68
2024/01/31 12:54:13;;;;;;;;;;;;;;;;;;5110720;28;19919;-68
2024/01/31 12:56:40;;;;;;;;;;;;;;;;;;5111129;28;20002;-69
2024/01/31 12:59:06;;;;;;;;;;;;;;;;;;5109220;28;19912;-69
2024/01/31 13:01:32;;;;;;;;;;;;;;;;;;5108236;28;19915;-69
2024/01/31 13:07:22;;;;;;;;;;;;;;;;;;5091206;28;19925;-67
2024/01/31 13:09:48;;;;;;;;;;;;;;;;;;5090514;28;19934;-67
2024/01/31 13:12:14;;;;;;;;;;;;;;;;;;5088629;28;19965;-69
2024/01/31 13:14:40;;;;;;;;;;;;;;;;;;5090658;28;19908;-68
2024/01/31 13:18:22;;;;;;;;;;;;;;;;;;5069482;28;20296;-67
2024/01/31 13:20:48;;;;;;;;;;;;;;;;;;5070332;28;19912;-68
2024/01/31 13:23:15;;;;;;;;;;;;;;;;;;5069820;28;19919;-67
2024/01/31 13:25:41;;;;;;;;;;;;;;;;;;5069425;28;19931;-68
2024/01/31 13:29:59;;;;;;;;;;;;;;;;;;5109103;27;19916;-68
2024/01/31 13:32:25;;;;;;;;;;;;;;;;;;5109852;28;19943;-68
2024/01/31 13:34:51;;;;;;;;;;;;;;;;;;5110322;28;20372;-69
2024/01/31 13:38:16;;;;;;;;;;;;;;;;;;5090008;27;19916;-66
2024/01/31 13:40:42;;;;;;;;;;;;;;;;;;5089771;28;19912;-67
2024/01/31 13:43:08;;;;;;;;;;;;;;;;;;5090185;28;19915;-68
2024/01/31 13:48:02;;;;;;;;;;;;;;;;;;5090291;28;20389;-68
2024/01/31 13:50:28;;;;;;;;;;;;;;;;;;5090843;28;19912;-68
2024/01/31 13:52:54;;;;;;;;;;;;;;;;;;5090662;28;20279;-68
2024/01/31 13:56:13;;;;;;;;;;;;;;;;;;5112585;27;19920;-68
2024/01/31 13:58:39;;;;;;;;;;;;;;;;;;5119130;28;19916;-71
2024/01/31 14:01:05;;;;;;;;;;;;;;;;;;5122251;27;19958;-70
2024/01/31 14:05:03;;;;;;;;;;;;;;;;;;5149848;27;19921;-68
2024/01/31 14:08:25;;;;;;;;;;;;;;;;;;5087575;27;19930;-69
2024/01/31 14:10:53;;;;;;;;;;;;;;;;;;5087090;28;19938;-69
2024/01/31 14:14:35;;;;;;;;;;;;;;;;;;4765955;27;10195849;-69
2024/01/31 14:18:43;;;;;;;;;;;;;;;;;;5088442;28;19916;-67
2024/01/31 14:22:25;;;;;;;;;;;;;;;;;;5129246;27;19916;-71
2024/01/31 14:26:15;;;;;;;;;;;;;;;;;;5091314;27;19912;-72
2024/01/31 14:28:41;;;;;;;;;;;;;;;;;;5090825;28;20254;-72
2024/01/31 14:31:09;;;;;;;;;;;;;;;;;;5091663;28;20376;-72
2024/01/31 14:33:35;;;;;;;;;;;;;;;;;;5091130;28;20280;-72
2024/01/31 14:36:36;;;;;;;;;;;;;;;;;;5091437;27;19923;-72
2024/01/31 14:39:02;;;;;;;;;;;;;;;;;;5089296;28;20431;-72
2024/01/31 14:42:36;;;;;;;;;;;;;;;;;;5089113;27;20119;-71
2024/01/31 14:45:02;;;;;;;;;;;;;;;;;;5088747;28;20011;-71
2024/01/31 14:51:18;;;;;;;;;;;;;;;;;;5089719;27;19922;-71
2024/01/31 14:55:46;;;;;;;;;;;;;;;;;;5091373;27;19919;-71
2024/01/31 14:58:12;;;;;;;;;;;;;;;;;;5090085;28;19912;-71
2024/01/31 15:01:39;;;;;;;;;;;;;;;;;;5152345;27;20072;-71
2024/01/31 15:05:10;;;;;;;;;;;;;;;;;;5110723;27;19912;-72
2024/01/31 15:07:36;;;;;;;;;;;;;;;;;;5111316;28;20344;-72
2024/01/31 15:10:03;;;;;;;;;;;;;;;;;;5110874;28;19915;-72
2024/01/31 15:12:29;;;;;;;;;;;;;;;;;;5110455;28;19916;-72
2024/01/31 15:21:02;;;;;;;;;;;;;;;;;;5090576;27;19913;-71
2024/01/31 15:24:35;;;;;;;;;;;;;;;;;;5091357;28;20284;-71
2024/01/31 15:27:01;;;;;;;;;;;;;;;;;;5090023;28;20297;-72
2024/01/31 15:29:27;;;;;;;;;;;;;;;;;;5090414;28;19962;-72
2024/01/31 15:31:53;;;;;;;;;;;;;;;;;;5090317;28;20275;-71
2024/01/31 15:34:19;;;;;;;;;;;;;;;;;;5090492;28;19908;-73
2024/01/31 15:36:46;;;;;;;;;;;;;;;;;;5090941;28;20372;-72
2024/01/31 15:39:12;;;;;;;;;;;;;;;;;;5090553;28;19909;-72
2024/01/31 15:41:38;;;;;;;;;;;;;;;;;;5091064;28;19951;-72
2024/01/31 15:44:04;;;;;;;;;;;;;;;;;;5091065;28;19974;-72
2024/01/31 15:46:32;;;;;;;;;;;;;;;;;;5090337;28;19908;-72
2024/01/31 15:48:58;;;;;;;;;;;;;;;;;;5091148;28;19909;-71
2024/01/31 15:51:24;;;;;;;;;;;;;;;;;;5090762;28;19935;-71
2024/01/31 15:53:50;;;;;;;;;;;;;;;;;;5090269;28;19908;-72
2024/01/31 15:56:16;;;;;;;;;;;;;;;;;;5090730;28;19908;-72
2024/01/31 15:58:42;;;;;;;;;;;;;;;;;;5090658;28;19974;-71
2024/01/31 16:01:08;;;;;;;;;;;;;;;;;;5088838;28;19908;-72
2024/01/31 16:03:34;;;;;;;;;;;;;;;;;;5089144;28;20011;-72
2024/01/31 16:06:00;;;;;;;;;;;;;;;;;;5090327;28;19995;-73
2024/01/31 16:08:26;;;;;;;;;;;;;;;;;;5089614;28;19908;-72
2024/01/31 16:10:52;;;;;;;;;;;;;;;;;;5090117;28;19909;-73
2024/01/31 16:13:18;;;;;;;;;;;;;;;;;;5088769;28;19908;-72
2024/01/31 16:15:44;;;;;;;;;;;;;;;;;;5089578;28;19909;-72
2024/01/31 16:18:10;;;;;;;;;;;;;;;;;;5090184;28;19951;-72
2024/01/31 16:20:36;;;;;;;;;;;;;;;;;;5090153;28;19916;-72
2024/01/31 16:23:02;;;;;;;;;;;;;;;;;;5097315;28;19978;-72
2024/01/31 16:25:28;;;;;;;;;;;;;;;;;;5110277;28;20384;-73
2024/01/31 16:27:54;;;;;;;;;;;;;;;;;;5110465;28;20276;-72
2024/01/31 16:30:20;;;;;;;;;;;;;;;;;;5109966;28;20261;-72
2024/01/31 16:32:46;;;;;;;;;;;;;;;;;;5110443;28;19972;-72
2024/01/31 16:35:12;;;;;;;;;;;;;;;;;;5100530;28;20364;-72
2024/01/31 16:37:37;;;;;;;;;;;;;;;;;;5078567;28;20272;-72
2024/01/31 16:40:04;;;;;;;;;;;;;;;;;;5096706;28;19914;-72
2024/01/31 16:42:30;;;;;;;;;;;;;;;;;;5096219;28;19912;-72
2024/01/31 16:44:56;;;;;;;;;;;;;;;;;;5078406;28;19961;-72
2024/01/31 16:47:22;;;;;;;;;;;;;;;;;;5094999;28;19912;-72
2024/01/31 16:49:48;;;;;;;;;;;;;;;;;;5095938;28;19912;-72
2024/01/31 16:52:14;;;;;;;;;;;;;;;;;;5096782;28;19919;-72
2024/01/31 16:54:40;;;;;;;;;;;;;;;;;;5096376;28;19961;-72
2024/01/31 16:57:06;;;;;;;;;;;;;;;;;;5096140;28;20376;-72
2024/01/31 16:59:32;;;;;;;;;;;;;;;;;;5096177;28;19908;-72
2024/01/31 17:01:58;;;;;;;;;;;;;;;;;;5096235;28;19958;-72
2024/01/31 17:04:24;;;;;;;;;;;;;;;;;;5095751;28;19916;-72
2024/01/31 17:06:50;;;;;;;;;;;;;;;;;;5096137;28;19916;-72
2024/01/31 17:09:16;;;;;;;;;;;;;;;;;;5096244;28;19908;-72
2024/01/31 17:11:42;;;;;;;;;;;;;;;;;;5096010;28;19908;-72
2024/01/31 17:14:08;;;;;;;;;;;;;;;;;;5096028;28;19908;-72
2024/01/31 17:16:34;;;;;;;;;;;;;;;;;;5095905;28;19908;-72
2024/01/31 17:19:00;;;;;;;;;;;;;;;;;;5095600;28;19915;-72
2024/01/31 17:21:26;;;;;;;;;;;;;;;;;;5077765;28;20002;-72
2024/01/31 17:23:52;;;;;;;;;;;;;;;;;;5095667;28;20431;-72
2024/01/31 17:26:18;;;;;;;;;;;;;;;;;;5095517;28;20395;-72
2024/01/31 17:28:44;;;;;;;;;;;;;;;;;;5095755;28;20257;-73